Skip Navigation Links
NOAA logo - Click to go to the NOAA homepage
NOAA's National Weather Service
Alaska Aviation Weather Unit
  NWS logo - Click to go to the NWS homepage
Left Navbar Graphic     23 AKDT = 07 GMT

   
NOAA is celebrating 200 years of science, service, and stewardship. Visit the NOAA 200th celebration Web site to learn more.
USA.gov is the U.S. Government's official Web portal to all Federal, state and local government Web resources and services.
Facebook
NWS on Facebook

Important Change Regarding the AAWU Web Presence

 

Over the last several months, the AAWU has been working to navigate its webpages to a nationally supported server. Security, as well as other needs, have necessitated the change.  In the process, we have made an effort to enhance the functionality of our website, as well as some of our products. As of June 20, 2017, aawu.arh.noaa.gov will be discontinued. The new AAWU web address is weather.gov/aawu. It is now live and will run in-parallel with the old site until it is discontinued. Please send any feedback or questions regarding the new webpages to nws.ar.aawu.webauthors@noaa.gov.  Thank you for your patience during this time of transition.
AAWU Home :: Display TAF Add Bookmark
TAF PAQT 240532Z 2406/2506 04006KT P6SM OVC012
     FM240900 05004KT 4SM BR BKN007 OVC012
     FM241100 08004KT 1 1/2SM BR OVC003
     FM241800 10005KT P6SM OVC005=

PAQT 240104Z AUTO 05007KT 10SM BKN008 BKN017 00/M02 A2992= METAR PAQT 240153Z AUTO 05006KT 10SM BKN007 BKN010 BKN016 M01/M02 A2991 RMK AO2 SLP130 T10061022 TSNO= PAQT 240237Z AUTO 04007KT 10SM SCT006 OVC017 M01/M02 A2992= METAR PAQT 240253Z AUTO 05007KT 10SM SCT009 OVC015 M01/M02 A2992 RMK AO2 SLP131 60000 T10061022 51003 TSNO= PAQT 240314Z AUTO 04006KT 10SM BKN009 OVC017 M01/M02 A2992= METAR PAQT 240353Z AUTO 02004KT 9SM OVC009 M01/M02 A2992 RMK AO2 SLP131 T10061017 TSNO= PAQT 240425Z AUTO 03004KT 10SM FEW008 OVC012 M01/M01 A2992= METAR PAQT 240453Z AUTO 05005KT 9SM FEW007 OVC014 M01/M01 A2992 RMK AO2 SLP131 T10061011 TSNO= PAQT 240501Z AUTO 05005KT 10SM FEW007 OVC015 M01/M01 A2992= PAQT 240515Z AUTO 04006KT 10SM OVC012 M01/M01 A2992= METAR PAQT 240553Z AUTO 03005KT 9SM OVC011 00/M01 A2991 RMK AO2 SLP130 60000 T00001006 10006 21011 58001 TSNO= PAQT 240613Z AUTO 03005KT 4SM BR SCT011 OVC018 M01/M01 A2991= PAQT 240620Z AUTO 03005KT 2SM BR FEW011 OVC019 M01/M01 A2991= PAQT 240629Z AUTO 02007KT 5SM BR OVC019 M01/M01 A2991= PAQT 240705Z AUTO 03005KT 2 1/2SM BR FEW007 OVC016 M01/M01 A2991= PAQT 240711Z AUTO 03005KT 1 1/4SM BR BKN007 OVC015 M01/M01 A2991= PAQT 240719Z AUTO 02006KT 3SM BR BKN007 OVC015 M01/M01 A2991= PAQT 240739Z AUTO 05004KT 1 3/4SM BR OVC005 M01/M01 A2992=
 Alaska TAF Map

NOAA's National Weather Service
Alaska Aviation Weather Unit
6930 Sand Lake Road
Anchorage, AK 99502-1845
Disclaimer
Credits
Glossary
Privacy Policy
About Us
Career Opportunities
Contact AAWU Internet Services Site last modified: April, 17th 2012